Time;durP1;ratioP1;P1;durP2;ratioP2;P2;SDS_P1;SDS_P2;PMS_P1;PMS_P2;Temp;Humidity;BMP_temperature;BMP_pressure;BME280_temperature;BME280_humidity;BME280_pressure;Samples;Min_cycle;Max_cycle;Signal;HPM_P1;HPM_P2
2023/12/06 00:00:06;;;;;;;69.03;42.83;;;-0.30;79.10;;;;;;7631871;23;20215;-80
2023/12/06 00:03:10;;;;;;;67.27;41.20;;;-0.30;79.40;;;;;;7628710;23;20249;-82
2023/12/06 00:06:13;;;;;;;67.57;42.33;;;-0.30;79.50;;;;;;7632233;23;20219;-80
2023/12/06 00:09:17;;;;;;;68.93;42.43;;;-0.30;79.70;;;;;;7630287;23;20299;-81
2023/12/06 00:12:21;;;;;;;66.80;40.23;;;-0.30;79.70;;;;;;7630755;23;20291;-83
2023/12/06 00:15:27;;;;;;;63.73;41.83;;;-0.30;79.80;;;;;;7629499;23;20219;-82
2023/12/06 00:18:30;;;;;;;71.13;41.23;;;-0.30;79.70;;;;;;7630121;23;20220;-82
2023/12/06 00:21:33;;;;;;;72.40;41.77;;;-0.30;79.90;;;;;;7640868;23;20211;-81
2023/12/06 00:24:37;;;;;;;63.77;41.20;;;-0.30;79.90;;;;;;7635403;23;20219;-83
2023/12/06 00:27:40;;;;;;;68.43;40.17;;;-0.30;80.00;;;;;;7614924;23;20215;-82
2023/12/06 00:30:44;;;;;;;67.27;40.77;;;-0.20;80.00;;;;;;7631639;23;20227;-80
2023/12/06 00:33:48;;;;;;;64.77;40.13;;;-0.20;80.00;;;;;;7649315;23;20239;-81
2023/12/06 00:36:51;;;;;;;67.67;40.53;;;-0.20;79.90;;;;;;7641602;23;20211;-81
2023/12/06 00:39:54;;;;;;;66.27;40.97;;;-0.20;80.00;;;;;;7636222;23;20211;-81
2023/12/06 00:42:57;;;;;;;64.43;40.73;;;-0.20;79.90;;;;;;7634714;23;20211;-81
2023/12/06 00:46:02;;;;;;;66.00;41.10;;;-0.20;79.80;;;;;;7633482;23;20610;-82
2023/12/06 00:49:08;;;;;;;61.80;40.53;;;-0.20;79.80;;;;;;7642191;23;20271;-82
2023/12/06 00:52:11;;;;;;;67.53;41.27;;;-0.20;79.80;;;;;;7671862;23;20210;-81
2023/12/06 00:55:14;;;;;;;65.97;40.40;;;-0.10;79.60;;;;;;7669649;23;20218;-82
2023/12/06 00:58:17;;;;;;;70.60;39.63;;;-0.10;79.40;;;;;;7669678;23;20210;-82
2023/12/06 01:01:22;;;;;;;64.67;41.03;;;-0.10;79.40;;;;;;7653265;23;20215;-80
2023/12/06 01:04:26;;;;;;;67.20;40.50;;;-0.10;79.70;;;;;;7669217;23;20219;-82
2023/12/06 01:07:29;;;;;;;64.37;40.57;;;-0.10;79.70;;;;;;7667342;23;20214;-81
2023/12/06 01:10:33;;;;;;;60.30;39.97;;;-0.10;79.80;;;;;;7646506;23;20219;-83
2023/12/06 01:13:36;;;;;;;64.33;41.00;;;-0.10;79.90;;;;;;7649020;23;20223;-83
2023/12/06 01:16:40;;;;;;;65.30;40.23;;;-0.10;80.00;;;;;;7646460;23;20325;-82
2023/12/06 01:19:43;;;;;;;69.90;41.87;;;-0.10;80.00;;;;;;7646909;23;20269;-82
2023/12/06 01:22:46;;;;;;;68.30;41.47;;;-0.10;80.00;;;;;;7634270;23;20238;-82
2023/12/06 01:25:49;;;;;;;69.47;41.93;;;-0.10;80.10;;;;;;7624626;23;20239;-82
2023/12/06 01:28:53;;;;;;;62.90;41.67;;;-0.10;80.00;;;;;;7629384;23;20207;-81
2023/12/06 01:31:58;;;;;;;64.77;40.30;;;-0.10;80.30;;;;;;7628863;23;20286;-81
2023/12/06 01:35:01;;;;;;;62.50;39.93;;;-0.10;80.30;;;;;;7630270;23;20235;-81
2023/12/06 01:38:04;;;;;;;68.73;41.90;;;-0.10;80.30;;;;;;7630193;23;20223;-82
2023/12/06 01:41:10;;;;;;;63.67;40.63;;;-0.10;80.40;;;;;;7630349;23;20222;-82
2023/12/06 01:44:13;;;;;;;70.83;41.47;;;-0.10;80.40;;;;;;7666457;23;20218;-81
2023/12/06 01:47:20;;;;;;;66.67;41.00;;;-0.10;80.30;;;;;;7666162;23;20287;-82
2023/12/06 01:50:24;;;;;;;67.03;40.70;;;-0.10;80.40;;;;;;7665622;23;20373;-81
2023/12/06 01:53:28;;;;;;;74.03;41.23;;;-0.10;80.30;;;;;;7665792;23;20293;-82
2023/12/06 01:56:32;;;;;;;65.27;40.53;;;-0.10;80.40;;;;;;7666058;23;20226;-83
2023/12/06 01:59:35;;;;;;;63.07;40.17;;;-0.10;80.50;;;;;;7666055;23;20227;-83
2023/12/06 02:02:40;;;;;;;68.40;41.47;;;-0.10;80.40;;;;;;7651322;23;20210;-81
2023/12/06 02:05:44;;;;;;;63.93;41.27;;;-0.10;80.40;;;;;;7631428;23;20483;-81
2023/12/06 02:08:47;;;;;;;66.70;41.20;;;-0.10;80.40;;;;;;7641533;23;20751;-82
2023/12/06 02:11:51;;;;;;;65.80;40.03;;;-0.10;80.60;;;;;;7628396;23;20235;-82
2023/12/06 02:14:57;;;;;;;63.23;40.43;;;-0.10;80.70;;;;;;7612420;23;20746;-81
2023/12/06 02:18:02;;;;;;;65.73;40.27;;;-0.10;80.70;;;;;;7629602;23;20282;-82
2023/12/06 02:21:06;;;;;;;68.23;41.63;;;-0.10;80.70;;;;;;7629642;23;20222;-81
2023/12/06 02:24:12;;;;;;;70.97;42.37;;;-0.10;80.80;;;;;;7629621;23;20587;-82
2023/12/06 02:27:16;;;;;;;63.07;40.17;;;-0.10;80.70;;;;;;7629537;23;20266;-83
2023/12/06 02:30:19;;;;;;;64.73;39.13;;;-0.10;80.70;;;;;;7628666;23;20223;-81
2023/12/06 02:33:24;;;;;;;65.73;41.77;;;-0.10;80.70;;;;;;7628939;23;20571;-82
2023/12/06 02:36:30;;;;;;;61.83;38.47;;;0.00;80.70;;;;;;7627021;23;20473;-82
2023/12/06 02:39:36;;;;;;;61.70;40.00;;;0.00;80.70;;;;;;7627838;23;20219;-81
2023/12/06 02:42:43;;;;;;;67.13;40.50;;;0.00;80.70;;;;;;7628904;23;20243;-82
2023/12/06 02:45:47;;;;;;;64.13;40.53;;;-0.10;80.90;;;;;;7621384;23;20263;-81
2023/12/06 02:48:51;;;;;;;67.27;42.17;;;0.00;80.80;;;;;;7629317;23;20218;-82
2023/12/06 02:51:55;;;;;;;66.73;40.13;;;0.00;80.70;;;;;;7628893;23;20215;-81
2023/12/06 02:54:58;;;;;;;63.17;40.10;;;0.00;80.70;;;;;;7626742;23;20270;-82
2023/12/06 02:58:02;;;;;;;66.23;40.47;;;0.00;80.80;;;;;;7629042;23;20615;-80
2023/12/06 03:01:06;;;;;;;61.40;38.40;;;0.00;80.90;;;;;;7628128;23;20215;-82
2023/12/06 03:04:09;;;;;;;71.73;41.07;;;0.00;81.10;;;;;;7628194;23;20219;-82
2023/12/06 03:07:12;;;;;;;60.87;38.40;;;0.00;81.10;;;;;;7628256;23;20262;-82
2023/12/06 03:10:17;;;;;;;66.30;41.40;;;0.00;81.20;;;;;;7629178;23;20212;-82
2023/12/06 03:13:21;;;;;;;61.97;39.87;;;0.00;81.30;;;;;;7628677;23;20905;-81
2023/12/06 03:16:24;;;;;;;66.50;41.23;;;-0.10;81.30;;;;;;7621005;23;20215;-80
2023/12/06 03:19:27;;;;;;;62.87;39.37;;;-0.10;81.40;;;;;;7642369;23;20215;-81
2023/12/06 03:22:30;;;;;;;61.93;40.63;;;-0.10;81.50;;;;;;7626073;23;20302;-82
2023/12/06 03:25:36;;;;;;;66.07;39.57;;;-0.10;81.60;;;;;;7627894;23;20743;-81
2023/12/06 03:28:41;;;;;;;68.50;40.57;;;0.00;81.50;;;;;;7626537;23;20912;-81
2023/12/06 03:31:44;;;;;;;62.03;39.50;;;0.00;81.60;;;;;;7628698;23;20223;-83
2023/12/06 03:34:47;;;;;;;63.80;40.87;;;-0.10;81.60;;;;;;7628369;23;20216;-80
2023/12/06 03:37:50;;;;;;;61.07;38.53;;;0.00;81.70;;;;;;7628242;23;20203;-82
2023/12/06 03:40:54;;;;;;;64.60;39.63;;;-0.10;81.60;;;;;;7633424;23;20219;-84
2023/12/06 03:43:58;;;;;;;74.30;42.70;;;0.00;81.60;;;;;;7626851;23;20824;-81
2023/12/06 03:47:05;;;;;;;63.27;39.03;;;-0.10;81.80;;;;;;7626351;23;20306;-80
2023/12/06 03:50:09;;;;;;;65.03;39.50;;;0.00;81.80;;;;;;7628552;23;20230;-81
2023/12/06 03:53:12;;;;;;;62.00;39.63;;;0.00;81.90;;;;;;7619282;23;20842;-80
2023/12/06 03:56:15;;;;;;;65.97;40.77;;;0.00;81.90;;;;;;7643358;23;20215;-82
2023/12/06 03:59:20;;;;;;;65.20;41.07;;;0.00;81.90;;;;;;7626570;23;20231;-83
2023/12/06 04:02:23;;;;;;;67.67;40.57;;;-0.10;82.10;;;;;;7627810;23;20290;-83
2023/12/06 04:05:26;;;;;;;64.33;40.57;;;0.00;82.20;;;;;;7628012;23;20219;-81
2023/12/06 04:08:31;;;;;;;66.27;40.33;;;0.00;82.20;;;;;;7644359;23;20210;-80
2023/12/06 04:11:35;;;;;;;67.73;39.77;;;-0.10;82.40;;;;;;7640429;23;20622;-83
2023/12/06 04:14:39;;;;;;;66.57;40.33;;;0.00;82.40;;;;;;7631759;23;20219;-83
2023/12/06 04:17:42;;;;;;;68.40;40.23;;;0.00;82.30;;;;;;7619311;23;20215;-81
2023/12/06 04:20:46;;;;;;;67.33;40.17;;;0.00;82.30;;;;;;7653940;23;20234;-80
2023/12/06 04:23:49;;;;;;;61.43;38.93;;;0.00;82.40;;;;;;7668381;23;20219;-82
2023/12/06 04:26:52;;;;;;;65.07;39.30;;;0.00;82.50;;;;;;7667216;23;20210;-80
2023/12/06 04:29:57;;;;;;;62.93;39.03;;;0.00;82.60;;;;;;7652858;23;20218;-82
2023/12/06 04:33:00;;;;;;;66.43;39.50;;;0.00;82.60;;;;;;7637329;23;20215;-82
2023/12/06 04:36:03;;;;;;;65.20;40.23;;;0.00;82.50;;;;;;7632574;23;20215;-82
2023/12/06 04:39:06;;;;;;;68.33;41.13;;;0.00;82.50;;;;;;7632169;23;20212;-78
2023/12/06 04:42:10;;;;;;;61.43;37.90;;;0.00;82.70;;;;;;7628830;23;20219;-81
2023/12/06 04:45:14;;;;;;;62.53;39.47;;;0.00;82.70;;;;;;7631729;23;20226;-83
2023/12/06 04:48:17;;;;;;;65.50;39.80;;;0.00;82.70;;;;;;7632181;23;20216;-82
2023/12/06 04:51:21;;;;;;;67.87;40.63;;;0.00;82.70;;;;;;7630450;23;20694;-82
2023/12/06 04:54:25;;;;;;;69.10;40.57;;;0.00;82.60;;;;;;7631969;23;20230;-82
2023/12/06 04:57:28;;;;;;;73.60;43.17;;;0.00;82.60;;;;;;7631745;23;20221;-82
2023/12/06 05:00:33;;;;;;;68.43;41.37;;;0.00;82.70;;;;;;7630955;23;20244;-81
2023/12/06 05:03:36;;;;;;;71.83;41.67;;;0.00;82.70;;;;;;7629422;23;20227;-81
2023/12/06 05:06:40;;;;;;;63.53;39.10;;;0.00;82.60;;;;;;7631671;23;20211;-82
2023/12/06 05:10:08;;;;;;;65.07;41.37;;;0.00;82.70;;;;;;7629578;23;20184;-81
2023/12/06 05:13:35;;;;;;;69.27;40.20;;;0.00;82.70;;;;;;7628328;23;20858;-81
2023/12/06 05:17:03;;;;;;;68.77;41.53;;;0.00;82.80;;;;;;7628937;23;20184;-81
2023/12/06 05:20:30;;;;;;;66.63;40.77;;;0.00;82.60;;;;;;7630488;23;20242;-82
2023/12/06 05:24:48;;;;;;;69.03;40.63;;;0.00;82.60;;;;;;7629955;23;20203;-83
2023/12/06 05:29:07;;;;;;;68.93;39.63;;;0.00;82.70;;;;;;7628538;23;20187;-82
2023/12/06 05:33:25;;;;;;;67.87;41.93;;;0.00;82.70;;;;;;7627785;23;20176;-82
2023/12/06 05:37:44;;;;;;;64.47;40.13;;;0.00;82.80;;;;;;7626778;23;20185;-81
2023/12/06 05:42:03;;;;;;;70.30;40.73;;;0.00;82.80;;;;;;7628623;23;20208;-81
2023/12/06 05:46:22;;;;;;;66.67;40.10;;;0.00;82.80;;;;;;7627053;23;20200;-81
2023/12/06 05:50:40;;;;;;;70.77;41.07;;;0.00;82.60;;;;;;7627168;23;20490;-81
2023/12/06 05:54:59;;;;;;;69.17;41.97;;;0.00;82.80;;;;;;7626114;23;20196;-82
2023/12/06 05:59:17;;;;;;;69.57;42.30;;;0.00;82.80;;;;;;7627043;23;20180;-80
2023/12/06 06:02:47;;;;;;;66.00;41.77;;;0.00;83.00;;;;;;7585236;23;20764;-82
2023/12/06 06:05:50;;;;;;;64.03;39.87;;;0.00;83.00;;;;;;7641026;23;20251;-82
2023/12/06 06:08:53;;;;;;;75.47;41.03;;;0.00;83.10;;;;;;7631861;23;20695;-83
2023/12/06 06:11:57;;;;;;;68.63;41.60;;;0.00;83.00;;;;;;7620206;23;20222;-84
2023/12/06 06:15:01;;;;;;;67.70;41.33;;;0.00;83.10;;;;;;7655641;23;20211;-84
2023/12/06 06:18:08;;;;;;;69.60;42.37;;;0.00;82.90;;;;;;7640694;23;20290;-85
2023/12/06 06:21:13;;;;;;;68.87;42.87;;;0.00;83.00;;;;;;7638521;23;20567;-79
2023/12/06 06:24:17;;;;;;;67.73;42.10;;;0.00;83.10;;;;;;7635951;23;20237;-81
2023/12/06 06:27:20;;;;;;;68.43;41.20;;;0.10;83.00;;;;;;7628963;23;20246;-77
2023/12/06 06:30:23;;;;;;;67.60;40.47;;;0.10;83.00;;;;;;7628261;23;20211;-75
2023/12/06 06:33:28;;;;;;;63.10;40.20;;;0.10;83.00;;;;;;7632694;23;20222;-82
2023/12/06 06:36:31;;;;;;;73.20;42.87;;;0.10;82.90;;;;;;7634064;23;20318;-82
2023/12/06 06:39:35;;;;;;;71.00;42.43;;;0.10;82.90;;;;;;7631885;23;20219;-81
2023/12/06 06:42:38;;;;;;;73.43;42.10;;;0.10;83.10;;;;;;7620885;23;20243;-78
2023/12/06 06:45:43;;;;;;;68.87;40.87;;;0.00;82.90;;;;;;7634307;23;20223;-76
2023/12/06 06:48:48;;;;;;;74.67;43.93;;;0.10;82.90;;;;;;7627878;23;20207;-79
2023/12/06 06:51:52;;;;;;;69.27;42.27;;;0.00;83.00;;;;;;7614814;23;20215;-80
2023/12/06 06:54:57;;;;;;;71.27;42.77;;;0.10;83.20;;;;;;7633521;23;20698;-80
2023/12/06 06:58:03;;;;;;;68.07;42.87;;;0.00;83.00;;;;;;7632726;23;20211;-80
2023/12/06 07:01:06;;;;;;;65.90;40.23;;;0.10;83.10;;;;;;7632537;23;20215;-82
2023/12/06 07:04:11;;;;;;;71.87;41.43;;;0.20;82.90;;;;;;7634572;23;20816;-82
2023/12/06 07:07:14;;;;;;;68.03;41.73;;;0.10;82.80;;;;;;7634527;23;20230;-84
2023/12/06 07:10:18;;;;;;;71.90;41.20;;;0.00;83.00;;;;;;7631396;23;20212;-83
2023/12/06 07:13:22;;;;;;;65.53;40.57;;;0.00;83.10;;;;;;7632347;23;20214;-82
2023/12/06 07:16:25;;;;;;;67.67;41.20;;;0.20;83.10;;;;;;7635135;23;20211;-82
2023/12/06 07:19:31;;;;;;;76.27;42.07;;;0.20;82.80;;;;;;7628820;23;20346;-82
2023/12/06 07:22:35;;;;;;;71.40;41.80;;;0.10;82.90;;;;;;7647562;23;20227;-79
2023/12/06 07:25:38;;;;;;;69.30;40.70;;;0.20;82.80;;;;;;7634422;23;20231;-79
2023/12/06 07:28:41;;;;;;;69.03;42.03;;;0.10;82.90;;;;;;7636512;23;20219;-80
2023/12/06 07:31:45;;;;;;;70.27;42.13;;;0.10;83.00;;;;;;7635391;23;20223;-79
2023/12/06 07:34:49;;;;;;;70.47;43.03;;;0.10;83.00;;;;;;7635730;23;20211;-82
2023/12/06 07:37:57;;;;;;;75.00;43.27;;;0.10;83.10;;;;;;7632034;23;20294;-81
2023/12/06 07:41:02;;;;;;;68.87;41.37;;;0.20;82.90;;;;;;7652251;23;20206;-81
2023/12/06 07:44:08;;;;;;;73.20;43.17;;;0.20;83.00;;;;;;7634983;23;20219;-82
2023/12/06 07:47:11;;;;;;;68.37;40.90;;;0.30;82.90;;;;;;7632448;23;20219;-81
2023/12/06 07:50:16;;;;;;;72.33;42.10;;;0.30;82.50;;;;;;7632271;23;20210;-82
2023/12/06 07:53:23;;;;;;;76.13;42.70;;;0.20;82.30;;;;;;7630966;23;21071;-81
2023/12/06 07:56:26;;;;;;;74.43;43.27;;;0.20;82.80;;;;;;7633046;23;20219;-79
2023/12/06 07:59:30;;;;;;;69.07;43.30;;;0.10;83.00;;;;;;7633793;23;20330;-81
2023/12/06 08:02:39;;;;;;;67.93;41.97;;;0.10;83.00;;;;;;7632941;23;20219;-81
2023/12/06 08:05:44;;;;;;;71.33;41.47;;;0.20;83.20;;;;;;7633444;23;20740;-83
2023/12/06 08:08:50;;;;;;;70.27;42.73;;;0.20;83.00;;;;;;7634194;23;20220;-81
2023/12/06 08:11:53;;;;;;;69.40;42.03;;;0.20;83.10;;;;;;7634000;23;20254;-79
2023/12/06 08:14:57;;;;;;;73.30;43.23;;;0.20;83.20;;;;;;7630200;23;20215;-80
2023/12/06 08:18:00;;;;;;;76.53;44.03;;;0.30;82.80;;;;;;7638527;23;20219;-79
2023/12/06 08:21:07;;;;;;;71.30;40.80;;;0.30;82.90;;;;;;7648380;23;20222;-81
2023/12/06 08:24:10;;;;;;;71.23;42.10;;;0.30;82.80;;;;;;7649068;23;20218;-80
2023/12/06 08:27:14;;;;;;;71.27;42.67;;;0.30;82.90;;;;;;7654718;23;20219;-77
2023/12/06 08:30:17;;;;;;;71.47;42.30;;;0.30;82.80;;;;;;7654953;23;20207;-81
2023/12/06 08:33:23;;;;;;;68.27;42.30;;;0.30;82.90;;;;;;7645545;23;20323;-81
2023/12/06 08:36:28;;;;;;;68.37;41.20;;;0.30;82.90;;;;;;7641884;23;20216;-80
2023/12/06 08:39:34;;;;;;;75.33;43.07;;;0.40;82.90;;;;;;7646134;23;20246;-80
2023/12/06 08:42:38;;;;;;;80.97;47.87;;;0.40;82.70;;;;;;7629638;23;20240;-80
2023/12/06 08:45:41;;;;;;;77.60;45.40;;;0.50;82.50;;;;;;7645804;23;20457;-78
2023/12/06 08:48:44;;;;;;;77.50;43.77;;;0.40;82.50;;;;;;7644070;23;20302;-79
2023/12/06 08:51:49;;;;;;;76.07;43.90;;;0.50;82.70;;;;;;7646896;23;20226;-78
2023/12/06 08:54:53;;;;;;;70.90;42.00;;;0.50;82.80;;;;;;7648726;23;20208;-77
2023/12/06 08:57:56;;;;;;;72.60;41.70;;;0.60;82.50;;;;;;7654784;23;20200;-74
2023/12/06 09:01:00;;;;;;;71.83;41.77;;;0.60;82.50;;;;;;7641484;23;20220;-79
2023/12/06 09:04:03;;;;;;;69.33;40.27;;;0.70;82.40;;;;;;7636582;23;20295;-82
2023/12/06 09:07:07;;;;;;;69.37;41.17;;;0.80;82.30;;;;;;7638788;23;20227;-81
2023/12/06 09:10:11;;;;;;;74.03;41.80;;;0.80;82.30;;;;;;7638054;23;20724;-81
2023/12/06 09:13:14;;;;;;;63.27;40.13;;;0.60;82.00;;;;;;7636083;23;20469;-82
2023/12/06 09:16:18;;;;;;;61.87;39.40;;;0.60;82.30;;;;;;7636898;23;20221;-82
2023/12/06 09:19:22;;;;;;;64.73;40.23;;;0.60;82.20;;;;;;7632728;23;20626;-78
2023/12/06 09:22:43;;;;;;;63.97;39.67;;;0.70;82.30;;;;;;7633394;23;20243;-80
2023/12/06 09:25:47;;;;;;;67.70;40.07;;;0.80;82.30;;;;;;7633214;23;20246;-82
2023/12/06 09:28:50;;;;;;;64.80;39.70;;;0.80;81.90;;;;;;7634980;23;20611;-81
2023/12/06 09:31:54;;;;;;;72.17;39.57;;;0.80;81.90;;;;;;7633287;23;20220;-81
2023/12/06 09:34:57;;;;;;;68.60;39.80;;;0.80;81.80;;;;;;7634450;23;20223;-83
2023/12/06 09:38:02;;;;;;;66.07;38.90;;;0.80;81.90;;;;;;7635431;23;20219;-83
2023/12/06 09:41:06;;;;;;;64.27;40.07;;;0.60;81.90;;;;;;7636531;23;20211;-84
2023/12/06 09:44:09;;;;;;;72.50;42.23;;;0.60;82.10;;;;;;7635048;23;20724;-82
2023/12/06 09:47:12;;;;;;;73.07;41.77;;;0.70;82.10;;;;;;7633058;23;20223;-80
2023/12/06 09:50:16;;;;;;;66.23;39.47;;;0.60;82.10;;;;;;7633335;23;20234;-80
2023/12/06 09:53:23;;;;;;;79.73;42.27;;;0.50;82.30;;;;;;7631019;23;20211;-80
2023/12/06 09:56:26;;;;;;;71.83;40.43;;;0.60;82.40;;;;;;7631903;23;20218;-84
2023/12/06 09:59:31;;;;;;;72.57;40.70;;;0.50;82.60;;;;;;7631742;23;20214;-82
2023/12/06 10:02:51;;;;;;;69.30;41.40;;;0.50;82.70;;;;;;7635962;23;20308;-78
2023/12/06 10:05:55;;;;;;;74.23;40.00;;;0.60;82.80;;;;;;7631973;23;20219;-81
2023/12/06 10:09:00;;;;;;;69.13;40.17;;;0.60;82.70;;;;;;7632419;23;20223;-80
2023/12/06 10:12:08;;;;;;;67.00;41.13;;;0.60;82.50;;;;;;7635278;23;20212;-82
2023/12/06 10:15:11;;;;;;;75.13;40.73;;;0.60;82.50;;;;;;7621911;23;20804;-80
2023/12/06 10:18:15;;;;;;;63.13;38.37;;;0.70;82.50;;;;;;7624203;23;20211;-84
2023/12/06 10:21:19;;;;;;;69.50;39.60;;;0.70;82.70;;;;;;7619036;23;20226;-80
2023/12/06 10:24:24;;;;;;;65.87;38.47;;;0.80;82.60;;;;;;7633242;23;20247;-79
2023/12/06 10:27:30;;;;;;;69.50;39.40;;;0.80;82.50;;;;;;7635034;23;20271;-83
2023/12/06 10:30:33;;;;;;;64.93;37.77;;;0.90;82.30;;;;;;7631274;23;20220;-81
2023/12/06 10:33:40;;;;;;;72.00;40.60;;;1.00;82.30;;;;;;7630667;23;20717;-84
2023/12/06 10:36:43;;;;;;;73.90;41.77;;;1.00;82.10;;;;;;7630399;23;20258;-81
2023/12/06 10:39:50;;;;;;;68.37;40.00;;;1.00;82.00;;;;;;7629613;23;20237;-80
2023/12/06 10:43:00;;;;;;;71.37;40.63;;;1.00;82.10;;;;;;7631183;23;20223;-80
2023/12/06 10:46:05;;;;;;;65.60;39.07;;;1.00;81.80;;;;;;7637186;23;20235;-80
2023/12/06 10:49:09;;;;;;;69.10;40.13;;;1.00;81.90;;;;;;7654767;23;20206;-83
2023/12/06 10:52:14;;;;;;;67.30;40.33;;;1.00;81.80;;;;;;7666229;23;20727;-82
2023/12/06 10:55:19;;;;;;;71.03;39.90;;;1.00;81.60;;;;;;7668078;23;20286;-80
2023/12/06 10:58:25;;;;;;;64.67;39.67;;;1.00;81.60;;;;;;7666569;23;20215;-78
2023/12/06 11:01:28;;;;;;;66.67;40.17;;;1.00;81.90;;;;;;7667870;23;20294;-81
2023/12/06 11:04:36;;;;;;;60.50;37.63;;;1.00;82.10;;;;;;7665033;23;20226;-82
2023/12/06 11:07:56;;;;;;;63.93;39.23;;;1.00;82.10;;;;;;7664961;23;20272;-80
2023/12/06 11:11:19;;;;;;;66.87;39.23;;;1.10;81.90;;;;;;7664792;23;20229;-81
2023/12/06 11:14:40;;;;;;;64.03;37.47;;;1.10;81.60;;;;;;7665640;23;20265;-81
2023/12/06 11:17:51;;;;;;;63.20;37.97;;;1.10;81.50;;;;;;7664028;23;20211;-80
2023/12/06 11:20:55;;;;;;;64.30;38.83;;;1.10;81.60;;;;;;7664589;23;20211;-80
2023/12/06 11:23:58;;;;;;;60.97;38.60;;;1.10;81.60;;;;;;7666178;23;20215;-82
2023/12/06 11:27:03;;;;;;;58.70;37.83;;;1.20;81.70;;;;;;7658048;23;20285;-81
2023/12/06 11:30:15;;;;;;;62.57;38.90;;;1.10;81.60;;;;;;7663726;23;20210;-82
2023/12/06 11:33:18;;;;;;;65.57;39.70;;;1.10;81.80;;;;;;7664240;23;20550;-80
2023/12/06 11:36:24;;;;;;;62.93;39.17;;;1.10;81.50;;;;;;7664626;23;20723;-84
2023/12/06 11:39:28;;;;;;;64.93;39.30;;;1.10;81.60;;;;;;7664049;23;20223;-80
2023/12/06 11:42:37;;;;;;;69.57;41.37;;;1.10;81.60;;;;;;7664714;23;20215;-83
2023/12/06 11:45:41;;;;;;;69.87;39.27;;;1.10;81.50;;;;;;7664697;23;20215;-84
2023/12/06 11:48:48;;;;;;;66.53;40.23;;;1.10;81.50;;;;;;7665633;23;20221;-80
2023/12/06 11:51:55;;;;;;;66.07;38.37;;;1.00;81.50;;;;;;7664166;23;20215;-78
2023/12/06 11:54:59;;;;;;;64.97;39.90;;;1.00;81.60;;;;;;7668702;23;20271;-83
2023/12/06 11:58:08;;;;;;;61.93;38.40;;;1.00;81.50;;;;;;7664985;23;20210;-82
2023/12/06 12:01:12;;;;;;;75.90;44.60;;;1.00;81.70;;;;;;7664037;23;20221;-81
2023/12/06 12:04:16;;;;;;;75.13;42.00;;;1.00;81.80;;;;;;7669166;23;20330;-83
2023/12/06 12:07:20;;;;;;;71.57;40.80;;;1.00;81.70;;;;;;7667005;23;20273;-81
2023/12/06 12:10:26;;;;;;;81.67;43.30;;;1.00;81.70;;;;;;7663316;23;20656;-81
2023/12/06 12:13:36;;;;;;;69.80;41.77;;;1.00;81.60;;;;;;7663156;23;20222;-80
2023/12/06 12:16:41;;;;;;;68.83;39.97;;;1.00;81.70;;;;;;7655991;23;20218;-82
2023/12/06 12:19:44;;;;;;;77.00;42.80;;;1.00;81.80;;;;;;7663315;23;20214;-79
2023/12/06 12:22:49;;;;;;;78.07;42.60;;;1.00;82.00;;;;;;7666459;23;20217;-81
2023/12/06 12:25:52;;;;;;;73.67;40.20;;;1.00;82.20;;;;;;7666201;23;20230;-81
2023/12/06 12:28:58;;;;;;;60.60;38.60;;;1.00;82.20;;;;;;7667501;23;20446;-82
2023/12/06 12:32:03;;;;;;;66.40;39.67;;;1.00;82.30;;;;;;7665131;23;20215;-82
2023/12/06 12:35:08;;;;;;;64.27;40.67;;;1.00;82.20;;;;;;7665678;23;20222;-82
2023/12/06 12:38:11;;;;;;;71.93;40.33;;;1.00;82.30;;;;;;7665988;23;20207;-79
2023/12/06 12:41:15;;;;;;;77.07;39.57;;;1.00;82.10;;;;;;7667768;23;20218;-80
2023/12/06 12:44:19;;;;;;;66.23;39.13;;;1.10;82.10;;;;;;7667854;23;20261;-83
2023/12/06 12:47:22;;;;;;;66.43;39.20;;;1.00;82.00;;;;;;7669305;23;20215;-81
2023/12/06 12:50:26;;;;;;;65.00;38.63;;;1.00;82.20;;;;;;7668968;23;20271;-79
2023/12/06 12:53:30;;;;;;;70.07;38.73;;;1.00;82.20;;;;;;7667704;23;20318;-79
2023/12/06 12:56:33;;;;;;;66.00;39.00;;;1.00;82.20;;;;;;7664719;23;20218;-79
2023/12/06 12:59:37;;;;;;;62.97;38.33;;;1.00;82.40;;;;;;7668369;23;20540;-81
2023/12/06 13:02:41;;;;;;;70.73;40.67;;;1.00;82.60;;;;;;7666450;23;20342;-80
2023/12/06 13:05:45;;;;;;;68.83;42.07;;;1.00;82.70;;;;;;7666639;23;20219;-80
2023/12/06 13:08:49;;;;;;;64.07;37.90;;;1.00;82.70;;;;;;7669613;23;20245;-81
2023/12/06 13:11:52;;;;;;;70.13;40.17;;;1.00;82.70;;;;;;7669574;23;20211;-79
2023/12/06 13:14:56;;;;;;;69.90;40.83;;;0.90;82.60;;;;;;7668340;23;20219;-81
2023/12/06 13:17:59;;;;;;;68.53;39.57;;;1.00;82.80;;;;;;7668426;23;20767;-80
2023/12/06 13:21:03;;;;;;;72.40;40.60;;;1.00;82.70;;;;;;7671017;23;20214;-80
2023/12/06 13:24:06;;;;;;;62.53;38.50;;;1.00;82.70;;;;;;7670088;23;20265;-82
2023/12/06 13:27:09;;;;;;;71.20;38.30;;;0.90;82.70;;;;;;7670649;23;20210;-82
2023/12/06 13:30:15;;;;;;;67.63;39.90;;;0.90;82.80;;;;;;7670843;23;20308;-82
2023/12/06 13:33:18;;;;;;;60.73;38.03;;;0.80;82.80;;;;;;7670607;23;20262;-81
2023/12/06 13:36:21;;;;;;;67.77;38.60;;;0.80;82.90;;;;;;7668932;23;20949;-79
2023/12/06 13:39:26;;;;;;;66.87;39.77;;;0.80;83.00;;;;;;7653804;23;20206;-80
2023/12/06 13:42:31;;;;;;;65.40;40.30;;;0.80;83.20;;;;;;7669000;23;20214;-80
2023/12/06 13:45:35;;;;;;;64.63;38.37;;;0.80;83.20;;;;;;7668900;23;20221;-79
2023/12/06 13:48:39;;;;;;;65.77;38.40;;;0.80;83.20;;;;;;7670740;23;20222;-83
2023/12/06 13:51:42;;;;;;;57.63;36.30;;;0.80;83.40;;;;;;7670994;23;20246;-79
2023/12/06 13:54:45;;;;;;;73.90;40.30;;;0.80;83.30;;;;;;7670635;23;20214;-77
2023/12/06 13:57:48;;;;;;;65.27;40.83;;;0.80;83.20;;;;;;7668981;23;20636;-84
2023/12/06 14:00:53;;;;;;;70.53;40.03;;;0.80;83.30;;;;;;7666686;23;20275;-83
2023/12/06 14:03:56;;;;;;;64.87;37.07;;;0.80;83.50;;;;;;7666923;23;20226;-82
2023/12/06 14:07:00;;;;;;;62.90;37.67;;;0.80;83.50;;;;;;7671732;23;20285;-81
2023/12/06 14:10:04;;;;;;;64.53;38.00;;;0.80;83.60;;;;;;7670092;23;20214;-82
2023/12/06 14:13:08;;;;;;;62.73;37.43;;;0.80;83.50;;;;;;7671215;23;20225;-83
2023/12/06 14:24:29;;;;;;;64.53;38.77;;;0.80;83.50;;;;;;7452862;23;20219;-82
2023/12/06 14:27:32;;;;;;;64.63;39.43;;;0.80;83.60;;;;;;7671388;23;20207;-83
2023/12/06 14:30:35;;;;;;;74.33;41.77;;;0.80;83.50;;;;;;7658067;23;20234;-86
2023/12/06 14:33:40;;;;;;;70.07;39.77;;;0.80;83.70;;;;;;7671946;23;20552;-84
2023/12/06 14:36:43;;;;;;;68.47;41.67;;;0.80;83.80;;;;;;7666033;23;20221;-81
2023/12/06 14:39:47;;;;;;;61.27;37.37;;;0.80;83.80;;;;;;7666369;23;20247;-81
2023/12/06 14:42:50;;;;;;;71.00;40.93;;;0.70;83.90;;;;;;7667771;23;20209;-82
2023/12/06 14:45:55;;;;;;;65.07;37.23;;;0.80;84.00;;;;;;7640819;23;20221;-82
2023/12/06 14:49:00;;;;;;;63.57;39.00;;;0.70;84.00;;;;;;7666912;23;20217;-82
2023/12/06 14:52:03;;;;;;;65.00;38.23;;;0.80;84.00;;;;;;7668106;23;20225;-82
2023/12/06 14:55:07;;;;;;;64.17;37.80;;;0.80;84.00;;;;;;7669749;23;20556;-83
2023/12/06 14:58:12;;;;;;;75.77;40.20;;;0.80;84.00;;;;;;7667450;23;20279;-82
2023/12/06 15:01:19;;;;;;;76.07;41.57;;;0.80;84.00;;;;;;7636468;23;20219;-80
2023/12/06 15:04:24;;;;;;;70.27;40.07;;;0.80;84.00;;;;;;7644714;23;20352;-83
2023/12/06 15:07:27;;;;;;;64.70;38.60;;;0.80;84.40;;;;;;7645407;23;20327;-81
2023/12/06 15:10:31;;;;;;;73.80;41.20;;;0.80;84.40;;;;;;7648613;23;21360;-79
2023/12/06 15:13:34;;;;;;;70.23;39.90;;;0.80;84.30;;;;;;7637076;23;20230;-80
2023/12/06 15:16:38;;;;;;;65.83;37.27;;;0.80;84.80;;;;;;7656207;23;20324;-82
2023/12/06 15:19:44;;;;;;;60.90;37.67;;;0.80;84.70;;;;;;7655490;23;20218;-83
2023/12/06 15:22:49;;;;;;;55.93;35.77;;;0.80;84.60;;;;;;7648837;23;20305;-82
2023/12/06 15:25:53;;;;;;;74.87;41.90;;;0.80;84.60;;;;;;7647356;23;20223;-81
2023/12/06 15:28:57;;;;;;;69.27;39.50;;;0.80;84.60;;;;;;7650108;23;20214;-82
2023/12/06 15:32:01;;;;;;;69.30;38.90;;;0.80;84.70;;;;;;7609008;23;20307;-82
2023/12/06 15:35:06;;;;;;;75.83;42.20;;;0.80;84.80;;;;;;7647845;23;20214;-81
2023/12/06 15:38:10;;;;;;;91.40;47.27;;;0.80;85.00;;;;;;7647024;23;20218;-80
2023/12/06 15:41:14;;;;;;;97.57;50.17;;;0.80;85.00;;;;;;7645766;23;20353;-83
2023/12/06 15:44:32;;;;;;;91.60;44.80;;;0.80;85.60;;;;;;7648643;23;20752;-80
2023/12/06 15:47:36;;;;;;;97.40;43.60;;;0.80;85.90;;;;;;7648027;23;20553;-80
2023/12/06 15:50:40;;;;;;;79.37;41.13;;;0.90;86.00;;;;;;7668117;23;20227;-81
2023/12/06 15:53:44;;;;;;;96.00;43.50;;;1.00;85.70;;;;;;7667828;23;20215;-83
2023/12/06 15:56:47;;;;;;;84.43;42.77;;;0.90;85.70;;;;;;7668991;23;20226;-84
2023/12/06 15:59:50;;;;;;;82.33;38.37;;;1.00;86.10;;;;;;7666582;23;20870;-83
2023/12/06 16:02:53;;;;;;;93.77;43.20;;;1.00;85.90;;;;;;7667631;23;20657;-82
2023/12/06 16:05:58;;;;;;;89.87;39.17;;;1.00;86.10;;;;;;7668585;23;20270;-83